createdAt,value
2022-12-18T00:01:34.265Z,23.65
2022-12-18T00:04:09.016Z,20.12
2022-12-18T00:06:36.847Z,20.23
2022-12-18T00:09:04.598Z,24.00
2022-12-18T00:11:32.836Z,21.48
2022-12-18T00:14:01.078Z,22.52
2022-12-18T00:16:31.281Z,19.62
2022-12-18T00:18:59.372Z,25.58
2022-12-18T00:21:28.194Z,24.97
2022-12-18T00:23:56.273Z,22.62
2022-12-18T00:26:26.670Z,22.23
2022-12-18T00:28:56.706Z,21.02
2022-12-18T00:31:25.858Z,20.58
2022-12-18T00:33:58.273Z,17.77
2022-12-18T00:36:28.741Z,21.65
2022-12-18T00:38:59.206Z,22.13
2022-12-18T00:41:46.247Z,23.10
2022-12-18T00:44:16.078Z,26.17
2022-12-18T00:46:44.690Z,23.70
2022-12-18T00:49:14.341Z,23.27
2022-12-18T00:51:41.893Z,22.08
2022-12-18T00:54:11.339Z,21.98
2022-12-18T00:56:48.267Z,23.17
2022-12-18T00:59:18.412Z,24.97
2022-12-18T01:01:47.128Z,24.20
2022-12-18T01:04:15.571Z,25.65
2022-12-18T01:06:46.249Z,25.02
2022-12-18T01:09:13.737Z,22.05
2022-12-18T01:11:41.353Z,20.13
2022-12-18T01:14:09.183Z,22.02
2022-12-18T01:16:38.618Z,24.12
2022-12-18T01:19:06.142Z,27.50
2022-12-18T01:21:34.874Z,23.27
2022-12-18T01:24:05.424Z,24.67
2022-12-18T01:26:32.910Z,20.37
2022-12-18T01:29:00.776Z,18.05
2022-12-18T01:31:32.036Z,20.90
2022-12-18T01:34:02.273Z,18.37
2022-12-18T01:36:35.440Z,20.10
2022-12-18T01:39:08.689Z,19.85
2022-12-18T01:41:55.028Z,22.08
2022-12-18T01:44:56.687Z,21.62
2022-12-18T01:47:28.139Z,21.08
2022-12-18T01:49:57.936Z,20.23
2022-12-18T01:52:29.252Z,20.40
2022-12-18T01:54:57.615Z,18.95
2022-12-18T01:57:28.151Z,22.08
2022-12-18T02:00:00.755Z,20.90
2022-12-18T02:02:30.138Z,17.87
2022-12-18T02:05:00.096Z,20.48
2022-12-18T02:07:38.941Z,23.55
2022-12-18T02:10:14.872Z,22.10
2022-12-18T02:13:14.882Z,21.95
2022-12-18T02:16:00.478Z,25.40
2022-12-18T02:18:39.446Z,23.10
2022-12-18T02:21:09.484Z,22.95
2022-12-18T02:23:37.573Z,18.17
2022-12-18T02:26:10.809Z,19.35
2022-12-18T02:29:04.443Z,21.53
2022-12-18T02:31:39.067Z,23.05
2022-12-18T02:34:10.841Z,19.45
2022-12-18T02:36:43.583Z,24.85
2022-12-18T02:39:13.362Z,22.20
2022-12-18T02:41:42.962Z,22.00
2022-12-18T02:44:13.941Z,20.50
2022-12-18T02:46:46.491Z,23.50
2022-12-18T02:49:41.745Z,20.33
2022-12-18T02:52:47.266Z,18.33
2022-12-18T02:55:59.842Z,20.93
2022-12-18T02:58:27.213Z,23.45
2022-12-18T03:01:08.693Z,22.15
2022-12-18T03:03:45.354Z,22.90
2022-12-18T03:06:25.040Z,23.58
2022-12-18T03:08:59.273Z,18.63
2022-12-18T03:11:50.970Z,19.33
2022-12-18T03:14:21.969Z,25.37
2022-12-18T03:16:53.493Z,20.65
2022-12-18T03:19:26.079Z,23.70
2022-12-18T03:21:57.226Z,18.07
2022-12-18T03:24:29.025Z,21.45
2022-12-18T03:27:03.584Z,23.15
2022-12-18T03:29:35.136Z,25.83
2022-12-18T03:32:11.599Z,18.30
2022-12-18T03:34:42.437Z,19.90
2022-12-18T03:37:10.986Z,19.48
2022-12-18T03:39:38.930Z,23.92
2022-12-18T03:42:16.782Z,26.67
2022-12-18T03:45:04.844Z,21.48
2022-12-18T03:47:51.537Z,21.97
2022-12-18T03:50:28.326Z,16.48
2022-12-18T03:53:03.329Z,23.52
2022-12-18T03:55:35.801Z,19.55
2022-12-18T03:58:07.245Z,19.45
2022-12-18T04:00:38.774Z,20.03
2022-12-18T04:03:09.594Z,24.92
2022-12-18T04:05:38.570Z,18.98
2022-12-18T04:08:07.210Z,23.65
2022-12-18T04:10:37.344Z,16.45
2022-12-18T04:13:04.929Z,24.27
2022-12-18T04:15:37.868Z,20.67
2022-12-18T04:18:05.705Z,22.05
2022-12-18T04:20:33.885Z,17.55
2022-12-18T04:23:01.941Z,15.18
2022-12-18T04:25:30.142Z,23.00
2022-12-18T04:27:59.108Z,18.37
2022-12-18T04:30:26.521Z,15.43
2022-12-18T04:32:53.963Z,19.35
2022-12-18T04:35:22.671Z,20.00
2022-12-18T04:37:50.444Z,17.27
2022-12-18T04:40:17.974Z,18.90
2022-12-18T04:42:46.806Z,18.15
2022-12-18T04:45:14.383Z,15.88
2022-12-18T04:47:41.824Z,15.93
2022-12-18T04:50:09.685Z,17.20
2022-12-18T04:52:37.390Z,17.58
2022-12-18T04:55:05.114Z,18.90
2022-12-18T04:57:32.874Z,16.65
2022-12-18T05:00:00.277Z,16.98
2022-12-18T05:02:27.760Z,21.90
2022-12-18T05:04:55.554Z,18.33
2022-12-18T05:07:23.014Z,15.65
2022-12-18T05:09:50.430Z,15.10
2022-12-18T05:12:18.121Z,16.12
2022-12-18T05:14:45.609Z,14.27
2022-12-18T05:17:13.334Z,14.02
2022-12-18T05:19:41.042Z,15.90
2022-12-18T05:22:08.932Z,18.37
2022-12-18T05:24:36.754Z,16.35
2022-12-18T05:27:05.014Z,17.13
2022-12-18T05:29:32.489Z,18.83
2022-12-18T05:31:59.926Z,19.50
2022-12-18T05:34:27.620Z,15.35
2022-12-18T05:36:55.055Z,19.98
2022-12-18T05:39:22.433Z,16.87
2022-12-18T05:41:50.113Z,18.30
2022-12-18T05:44:17.490Z,15.93
2022-12-18T05:46:44.970Z,16.05
2022-12-18T05:49:12.700Z,16.92
2022-12-18T05:51:40.099Z,14.13
2022-12-18T05:54:08.790Z,19.48
2022-12-18T05:56:36.554Z,16.87
2022-12-18T05:59:04.019Z,15.20
2022-12-18T06:01:31.571Z,18.40
2022-12-18T06:04:00.085Z,16.57
2022-12-18T06:06:29.862Z,12.93
2022-12-18T06:08:58.085Z,15.55
2022-12-18T06:11:27.583Z,15.38
2022-12-18T06:13:59.068Z,16.12
2022-12-18T06:16:30.965Z,15.40
2022-12-18T06:18:59.991Z,14.68
2022-12-18T06:21:28.801Z,13.80
2022-12-18T06:23:56.212Z,17.62
2022-12-18T06:26:28.063Z,19.12
2022-12-18T06:28:56.438Z,14.30
2022-12-18T06:31:24.199Z,20.20
2022-12-18T06:33:51.644Z,16.60
2022-12-18T06:36:19.489Z,18.12
2022-12-18T06:38:46.949Z,15.98
2022-12-18T06:41:19.705Z,17.40
2022-12-18T06:43:47.894Z,16.75
2022-12-18T06:46:15.605Z,17.75
2022-12-18T06:48:43.441Z,17.65
2022-12-18T06:51:11.147Z,15.90
2022-12-18T06:53:38.815Z,16.77
2022-12-18T06:56:10.516Z,17.95
2022-12-18T06:58:40.308Z,16.12
2022-12-18T07:01:11.463Z,16.95
2022-12-18T07:03:41.898Z,16.58
2022-12-18T07:06:21.443Z,20.10
2022-12-18T07:08:50.501Z,19.98
2022-12-18T07:11:19.002Z,15.88
2022-12-18T07:13:47.346Z,17.87
2022-12-18T07:16:24.334Z,15.32
2022-12-18T07:18:55.073Z,14.63
2022-12-18T07:21:24.411Z,19.90
2022-12-18T07:23:52.157Z,17.77
2022-12-18T07:26:21.729Z,15.98
2022-12-18T07:28:50.306Z,20.80
2022-12-18T07:31:21.607Z,17.57
2022-12-18T07:33:50.902Z,23.85
2022-12-18T07:36:18.618Z,21.87
2022-12-18T07:38:49.120Z,21.62
2022-12-18T07:41:17.413Z,21.00
2022-12-18T07:43:45.134Z,23.40
2022-12-18T07:46:17.103Z,24.12
2022-12-18T07:48:50.086Z,27.90
2022-12-18T07:51:18.895Z,20.33
2022-12-18T07:53:46.790Z,24.55
2022-12-18T07:56:30.093Z,24.73
2022-12-18T07:59:00.112Z,26.12
2022-12-18T08:01:28.228Z,28.77
2022-12-18T08:03:56.254Z,28.77
2022-12-18T08:06:24.510Z,29.90
2022-12-18T08:08:56.552Z,26.33
2022-12-18T08:11:26.764Z,32.92
2022-12-18T08:13:54.724Z,33.90
2022-12-18T08:16:23.429Z,32.30
2022-12-18T08:18:53.390Z,33.42
2022-12-18T08:21:24.662Z,42.97
2022-12-18T08:23:54.406Z,35.88
2022-12-18T08:26:22.715Z,41.35
2022-12-18T08:28:51.311Z,36.33
2022-12-18T08:31:19.823Z,33.50
2022-12-18T08:33:53.324Z,27.40
2022-12-18T08:36:21.683Z,29.08
2022-12-18T08:38:49.287Z,28.27
2022-12-18T08:41:17.937Z,25.77
2022-12-18T08:44:04.959Z,24.67
2022-12-18T08:46:42.099Z,22.53
2022-12-18T08:49:11.456Z,23.83
2022-12-18T08:51:39.781Z,21.42
2022-12-18T08:54:07.918Z,18.58
2022-12-18T08:56:36.174Z,19.15
2022-12-18T08:59:03.826Z,23.93
2022-12-18T09:01:31.725Z,19.73
2022-12-18T09:04:00.166Z,20.08
2022-12-18T09:06:27.681Z,22.17
2022-12-18T09:08:55.168Z,26.55
2022-12-18T09:11:25.750Z,21.07
2022-12-18T09:13:54.959Z,21.33
2022-12-18T09:16:27.410Z,19.37
2022-12-18T09:19:00.723Z,21.85
2022-12-18T09:21:31.353Z,22.83
2022-12-18T09:24:00.355Z,17.47
2022-12-18T09:26:28.409Z,22.48
2022-12-18T09:28:56.910Z,19.15
2022-12-18T09:31:25.715Z,16.50
2022-12-18T09:33:53.551Z,17.55
2022-12-18T09:36:21.023Z,16.40
2022-12-18T09:38:49.307Z,20.85
2022-12-18T09:41:35.965Z,15.40
2022-12-18T09:44:26.048Z,13.38
2022-12-18T09:46:56.898Z,15.07
2022-12-18T09:49:30.342Z,15.03
2022-12-18T09:52:09.677Z,18.65
2022-12-18T09:54:40.958Z,16.12
2022-12-18T09:57:20.596Z,17.12
2022-12-18T09:59:54.618Z,16.95
2022-12-18T10:02:25.573Z,17.83
2022-12-18T10:05:07.030Z,15.77
2022-12-18T10:07:43.592Z,13.38
2022-12-18T10:10:30.478Z,17.30
2022-12-18T10:13:08.359Z,18.45
2022-12-18T10:16:17.358Z,15.23
2022-12-18T10:19:02.106Z,15.98
2022-12-18T10:21:35.835Z,17.80
2022-12-18T10:24:06.114Z,14.93
2022-12-18T10:26:34.093Z,15.02
2022-12-18T10:29:05.709Z,14.97
2022-12-18T10:31:33.692Z,18.27
2022-12-18T10:34:01.466Z,16.40
2022-12-18T10:36:29.038Z,16.17
2022-12-18T10:39:17.025Z,14.27
2022-12-18T10:41:44.709Z,15.70
2022-12-18T10:44:21.388Z,17.45
2022-12-18T10:46:57.110Z,14.63
2022-12-18T10:49:29.044Z,17.12
2022-12-18T10:52:16.477Z,21.87
2022-12-18T10:54:59.990Z,18.43
2022-12-18T10:57:27.329Z,16.50
2022-12-18T10:59:57.283Z,18.48
2022-12-18T11:02:35.406Z,18.52
2022-12-18T11:05:06.346Z,19.37
2022-12-18T11:07:51.222Z,17.80
2022-12-18T11:10:20.736Z,19.23
2022-12-18T11:12:49.049Z,17.45
2022-12-18T11:15:30.779Z,16.42
2022-12-18T11:17:59.279Z,16.42
2022-12-18T11:20:36.890Z,21.70
2022-12-18T11:23:13.137Z,22.17
2022-12-18T11:25:40.857Z,20.35
2022-12-18T11:28:37.062Z,19.77
2022-12-18T11:31:28.818Z,18.70
2022-12-18T11:34:34.352Z,19.67
2022-12-18T11:37:04.593Z,20.80
2022-12-18T11:39:40.299Z,21.05
2022-12-18T11:42:21.485Z,20.33
2022-12-18T11:44:59.430Z,19.92
2022-12-18T11:47:39.734Z,21.40
2022-12-18T11:50:40.054Z,18.85
2022-12-18T11:53:12.135Z,22.87
2022-12-18T11:55:58.015Z,18.20
2022-12-18T11:58:48.429Z,21.67
2022-12-18T12:01:38.971Z,22.10
2022-12-18T12:04:32.642Z,21.23
2022-12-18T12:07:12.276Z,20.45
2022-12-18T12:10:03.847Z,19.02
2022-12-18T12:12:51.085Z,21.10
2022-12-18T12:15:28.714Z,19.23
2022-12-18T12:18:21.947Z,23.95
2022-12-18T12:21:23.358Z,19.80
2022-12-18T12:24:15.019Z,21.58
2022-12-18T12:26:42.679Z,22.27
2022-12-18T12:29:28.743Z,21.07
2022-12-18T12:32:08.433Z,22.60
2022-12-18T12:34:51.743Z,20.85
2022-12-18T12:37:38.355Z,22.37
2022-12-18T12:40:26.937Z,21.25
2022-12-18T12:43:14.522Z,20.43
2022-12-18T12:45:56.973Z,20.37
2022-12-18T12:48:40.259Z,22.55
2022-12-18T12:51:14.046Z,20.37
2022-12-18T12:53:42.942Z,18.33
2022-12-18T12:56:14.239Z,20.13
2022-12-18T12:59:00.290Z,19.90
2022-12-18T13:01:43.198Z,21.10
2022-12-18T13:04:26.843Z,19.10
2022-12-18T13:07:05.438Z,23.12
2022-12-18T13:09:36.818Z,19.30
2022-12-18T13:12:30.436Z,20.10
2022-12-18T13:15:31.555Z,16.52
2022-12-18T13:18:09.961Z,18.17
2022-12-18T13:20:41.297Z,21.27
2022-12-18T13:23:27.144Z,18.77
2022-12-18T13:25:58.643Z,19.70
2022-12-18T13:28:35.005Z,21.30
2022-12-18T13:31:04.049Z,19.75
2022-12-18T13:33:31.382Z,20.50
2022-12-18T13:36:10.973Z,21.00
2022-12-18T13:38:40.542Z,20.62
2022-12-18T13:41:20.021Z,18.58
2022-12-18T13:43:50.157Z,23.23
2022-12-18T13:46:25.398Z,20.73
2022-12-18T13:49:39.218Z,18.00
2022-12-18T13:52:28.742Z,21.30
2022-12-18T13:54:58.780Z,20.23
2022-12-18T13:57:44.760Z,28.38
2022-12-18T14:00:30.468Z,26.50
2022-12-18T14:02:59.378Z,26.63
2022-12-18T14:05:38.648Z,29.70
2022-12-18T14:08:15.346Z,31.52
2022-12-18T14:10:49.160Z,27.00
2022-12-18T14:13:33.159Z,30.67
2022-12-18T14:16:04.365Z,33.73
2022-12-18T14:18:35.153Z,33.03
2022-12-18T14:21:05.120Z,36.38
2022-12-18T14:23:37.635Z,37.22
2022-12-18T14:26:24.214Z,32.30
2022-12-18T14:28:52.285Z,33.37
2022-12-18T14:31:25.319Z,29.87
2022-12-18T14:33:54.361Z,31.98
2022-12-18T14:36:27.505Z,33.03
2022-12-18T14:38:57.718Z,33.00
2022-12-18T14:41:27.071Z,34.47
2022-12-18T14:43:55.800Z,29.45
2022-12-18T14:46:43.732Z,31.50
2022-12-18T14:49:23.606Z,35.80
2022-12-18T14:51:57.554Z,36.97
2022-12-18T14:54:30.667Z,39.10
2022-12-18T14:56:58.040Z,37.00
2022-12-18T14:59:27.148Z,39.15
2022-12-18T15:01:54.952Z,35.55
2022-12-18T15:04:37.842Z,34.25
2022-12-18T15:07:12.385Z,31.13
2022-12-18T15:09:41.850Z,34.28
2022-12-18T15:12:34.776Z,36.47
2022-12-18T15:15:03.132Z,34.67
2022-12-18T15:17:31.366Z,34.78
2022-12-18T15:20:04.429Z,33.87
2022-12-18T15:22:36.674Z,33.03
2022-12-18T15:25:25.302Z,32.40
2022-12-18T15:27:56.165Z,35.35
2022-12-18T15:30:24.883Z,29.17
2022-12-18T15:33:13.276Z,33.90
2022-12-18T15:35:46.661Z,32.72
2022-12-18T15:38:14.797Z,32.80
2022-12-18T15:40:42.534Z,34.10
2022-12-18T15:43:29.595Z,35.38
2022-12-18T15:45:57.416Z,30.33
2022-12-18T15:48:24.966Z,28.98
2022-12-18T15:50:54.818Z,34.53
2022-12-18T15:53:22.866Z,31.65
2022-12-18T15:56:09.210Z,30.85
2022-12-18T15:58:37.147Z,30.10
2022-12-18T16:01:05.311Z,35.88
2022-12-18T16:03:33.165Z,32.08
2022-12-18T16:06:03.018Z,35.05
2022-12-18T16:08:31.819Z,36.40
2022-12-18T16:10:59.593Z,34.87
2022-12-18T16:13:26.946Z,34.15
2022-12-18T16:15:54.453Z,36.47
2022-12-18T16:18:22.522Z,38.15
2022-12-18T16:20:50.140Z,34.35
2022-12-18T16:23:17.531Z,32.47
2022-12-18T16:25:45.309Z,33.40
2022-12-18T16:28:12.775Z,34.80
2022-12-18T16:30:41.367Z,35.72
2022-12-18T16:33:12.165Z,39.42
2022-12-18T16:35:39.605Z,33.03
2022-12-18T16:38:07.130Z,33.28
2022-12-18T16:40:54.782Z,34.03
2022-12-18T16:43:22.226Z,36.42
2022-12-18T16:45:50.832Z,38.55
2022-12-18T16:48:19.342Z,38.87
2022-12-18T16:50:46.998Z,32.58
2022-12-18T16:53:14.774Z,35.50
2022-12-18T16:55:42.629Z,32.05
2022-12-18T16:58:10.151Z,37.58
2022-12-18T17:00:39.194Z,35.40
2022-12-18T17:03:06.862Z,34.80
2022-12-18T17:05:35.325Z,37.60
2022-12-18T17:08:03.061Z,31.40
2022-12-18T17:10:31.205Z,35.40
2022-12-18T17:12:58.671Z,36.40
2022-12-18T17:15:26.493Z,37.20
2022-12-18T17:17:53.901Z,39.85
2022-12-18T17:20:22.946Z,41.10
2022-12-18T17:22:50.629Z,33.70
2022-12-18T17:25:18.025Z,36.27
2022-12-18T17:27:45.464Z,30.90
2022-12-18T17:30:13.633Z,34.65
2022-12-18T17:32:41.141Z,33.53
2022-12-18T17:35:08.939Z,43.00
2022-12-18T17:37:36.747Z,65.07
2022-12-18T17:40:04.665Z,37.85
2022-12-18T17:42:32.151Z,35.30
2022-12-18T17:44:59.922Z,37.83
2022-12-18T17:47:27.376Z,45.55
2022-12-18T17:49:55.006Z,41.37
2022-12-18T17:52:23.648Z,34.35
2022-12-18T17:54:51.066Z,39.65
2022-12-18T17:57:18.822Z,41.63
2022-12-18T17:59:46.590Z,45.85
2022-12-18T18:02:14.174Z,37.83
2022-12-18T18:04:42.002Z,46.63
2022-12-18T18:07:10.182Z,50.60
2022-12-18T18:09:38.076Z,48.45
2022-12-18T18:12:24.634Z,42.40
2022-12-18T18:14:52.876Z,48.57
2022-12-18T18:17:20.771Z,46.33
2022-12-18T18:19:49.449Z,42.72
2022-12-18T18:22:17.351Z,43.92
2022-12-18T18:24:46.958Z,41.75
2022-12-18T18:27:15.110Z,40.33
2022-12-18T18:29:42.542Z,55.92
2022-12-18T18:32:10.385Z,48.95
2022-12-18T18:34:40.896Z,43.92
2022-12-18T18:37:10.001Z,41.65
2022-12-18T18:39:37.791Z,42.30
2022-12-18T18:42:05.436Z,46.15
2022-12-18T18:44:32.887Z,47.05
2022-12-18T18:47:00.646Z,43.67
2022-12-18T18:49:29.992Z,44.42
2022-12-18T18:51:57.868Z,42.30
2022-12-18T18:54:26.110Z,44.63
2022-12-18T18:57:19.440Z,44.13
2022-12-18T18:59:42.315Z,42.65
2022-12-18T19:02:13.399Z,44.03
2022-12-18T19:04:46.199Z,40.27
2022-12-18T19:07:28.113Z,41.10
2022-12-18T19:10:05.151Z,39.92
2022-12-18T19:12:52.932Z,39.65
2022-12-18T19:15:22.342Z,46.00
2022-12-18T19:17:50.114Z,44.30
2022-12-18T19:20:18.290Z,36.30
2022-12-18T19:22:55.073Z,39.55
2022-12-18T19:25:38.232Z,43.50
2022-12-18T19:28:21.565Z,40.80
2022-12-18T19:30:51.457Z,43.53
2022-12-18T19:33:44.585Z,43.17
2022-12-18T19:36:23.205Z,45.40
2022-12-18T19:38:52.618Z,55.72
2022-12-18T19:41:21.578Z,47.45
2022-12-18T19:43:50.605Z,44.40
2022-12-18T19:46:22.871Z,43.63
2022-12-18T19:48:50.846Z,39.80
2022-12-18T19:51:22.411Z,53.13
2022-12-18T19:53:53.667Z,52.22
2022-12-18T19:56:26.877Z,49.73
2022-12-18T19:58:55.483Z,54.15
2022-12-18T20:01:24.972Z,49.10
2022-12-18T20:03:54.604Z,45.88
2022-12-18T20:06:26.077Z,50.00
2022-12-18T20:08:57.678Z,47.27
2022-12-18T20:11:30.174Z,47.03
2022-12-18T20:13:58.723Z,42.92
2022-12-18T20:16:26.249Z,55.42
2022-12-18T20:18:56.202Z,48.00
2022-12-18T20:21:25.345Z,49.73
2022-12-18T20:23:54.516Z,44.60
2022-12-18T20:26:23.058Z,44.72
2022-12-18T20:28:50.825Z,43.53
2022-12-18T20:31:18.383Z,50.15
2022-12-18T20:33:48.727Z,45.83
2022-12-18T20:36:22.372Z,44.80
2022-12-18T20:38:51.922Z,46.35
2022-12-18T20:41:23.605Z,43.78
2022-12-18T20:43:51.566Z,39.30
2022-12-18T20:46:19.443Z,46.43
2022-12-18T20:48:47.876Z,43.40
2022-12-18T20:51:17.949Z,40.45
2022-12-18T20:53:46.465Z,41.85
2022-12-18T20:56:23.011Z,39.08
2022-12-18T20:58:54.914Z,41.37
2022-12-18T21:01:24.190Z,40.42
2022-12-18T21:03:52.309Z,38.50
2022-12-18T21:06:22.154Z,44.28
2022-12-18T21:08:50.021Z,36.85
2022-12-18T21:11:50.139Z,35.90
2022-12-18T21:14:19.643Z,39.38
2022-12-18T21:16:48.557Z,33.90
2022-12-18T21:19:18.923Z,36.28
2022-12-18T21:21:47.452Z,42.03
2022-12-18T21:24:15.721Z,41.23
2022-12-18T21:26:46.035Z,36.80
2022-12-18T21:29:16.700Z,33.92
2022-12-18T21:31:45.523Z,41.37
2022-12-18T21:34:21.791Z,35.67
2022-12-18T21:36:49.745Z,47.03
2022-12-18T21:39:18.205Z,41.72
2022-12-18T21:42:05.797Z,39.28
2022-12-18T21:44:41.726Z,37.97
2022-12-18T21:47:21.908Z,40.05
2022-12-18T21:49:54.377Z,42.33
2022-12-18T21:52:31.358Z,36.90
2022-12-18T21:55:09.103Z,38.42
2022-12-18T21:57:39.268Z,38.92
2022-12-18T22:00:10.706Z,40.28
2022-12-18T22:02:44.715Z,36.53
2022-12-18T22:05:12.687Z,41.15
2022-12-18T22:07:40.853Z,31.33
2022-12-18T22:10:09.159Z,39.38
2022-12-18T22:12:44.038Z,34.97
2022-12-18T22:15:21.205Z,31.27
2022-12-18T22:17:59.675Z,38.45
2022-12-18T22:20:30.030Z,35.67
2022-12-18T22:22:58.302Z,39.78
2022-12-18T22:25:25.833Z,36.45
2022-12-18T22:28:12.027Z,36.70
2022-12-18T22:30:39.748Z,39.08
2022-12-18T22:33:07.438Z,37.17
2022-12-18T22:35:34.916Z,35.00
2022-12-18T22:38:03.406Z,38.58
2022-12-18T22:40:31.150Z,33.50
2022-12-18T22:42:58.684Z,36.05
2022-12-18T22:45:26.814Z,43.22
2022-12-18T22:47:54.538Z,40.45
2022-12-18T22:50:21.977Z,34.83
2022-12-18T22:52:49.373Z,42.90
2022-12-18T22:55:17.197Z,30.48
2022-12-18T22:57:48.591Z,35.88
2022-12-18T23:00:24.231Z,31.67
2022-12-18T23:02:59.356Z,41.37
2022-12-18T23:05:31.703Z,32.63
2022-12-18T23:07:59.521Z,40.90
2022-12-18T23:10:28.227Z,37.88
2022-12-18T23:12:55.840Z,29.83
2022-12-18T23:15:27.758Z,32.53
2022-12-18T23:17:58.401Z,32.03
2022-12-18T23:20:27.613Z,36.45
2022-12-18T23:22:55.230Z,37.70
2022-12-18T23:25:23.182Z,39.72
2022-12-18T23:27:50.729Z,42.40
2022-12-18T23:30:18.210Z,37.97
2022-12-18T23:32:45.949Z,37.15
2022-12-18T23:35:15.642Z,41.20
2022-12-18T23:38:00.538Z,41.28
2022-12-18T23:40:29.599Z,49.50
2022-12-18T23:42:58.610Z,36.87
2022-12-18T23:45:26.050Z,40.67
2022-12-18T23:47:53.734Z,45.88
2022-12-18T23:50:25.410Z,44.58
2022-12-18T23:53:04.592Z,43.08
2022-12-18T23:55:37.391Z,38.50
2022-12-18T23:58:05.147Z,38.33
